sensor_id;sensor_type;location;lat;lon;timestamp;pressure;altitude;pressure_sealevel;temperature;humidity
64253;BME280;50592;52.958;-7.470;2023-11-19T01:06:06;98823.69;;;10.46;100.00
64253;BME280;50592;52.958;-7.470;2023-11-19T01:08:33;98819.03;;;10.48;100.00
64253;BME280;50592;52.958;-7.470;2023-11-19T01:11:21;98814.03;;;10.53;100.00
64253;BME280;50592;52.958;-7.470;2023-11-19T01:13:49;98818.06;;;10.49;100.00
64253;BME280;50592;52.958;-7.470;2023-11-19T01:16:18;98823.56;;;10.54;100.00
64253;BME280;50592;52.958;-7.470;2023-11-19T01:18:46;98818.56;;;10.60;100.00
64253;BME280;50592;52.958;-7.470;2023-11-19T01:21:12;98812.47;;;10.59;100.00
64253;BME280;50592;52.958;-7.470;2023-11-19T01:23:40;98803.91;;;10.57;100.00
64253;BME280;50592;52.958;-7.470;2023-11-19T01:26:12;98814.19;;;10.67;100.00
64253;BME280;50592;52.958;-7.470;2023-11-19T01:28:39;98803.19;;;10.63;100.00
64253;BME280;50592;52.958;-7.470;2023-11-19T01:31:05;98805.81;;;10.63;100.00
64253;BME280;50592;52.958;-7.470;2023-11-19T01:33:38;98794.03;;;10.66;100.00
64253;BME280;50592;52.958;-7.470;2023-11-19T01:36:05;98785.06;;;10.60;100.00
64253;BME280;50592;52.958;-7.470;2023-11-19T01:38:34;98784.88;;;10.62;100.00
64253;BME280;50592;52.958;-7.470;2023-11-19T01:41:00;98790.34;;;10.60;100.00
64253;BME280;50592;52.958;-7.470;2023-11-19T01:43:33;98784.13;;;10.68;100.00
64253;BME280;50592;52.958;-7.470;2023-11-19T01:46:00;98776.09;;;10.61;100.00
64253;BME280;50592;52.958;-7.470;2023-11-19T01:48:27;98778.09;;;10.59;100.00
64253;BME280;50592;52.958;-7.470;2023-11-19T01:50:53;98774.84;;;10.57;100.00
64253;BME280;50592;52.958;-7.470;2023-11-19T01:53:19;98772.03;;;10.59;100.00
64253;BME280;50592;52.958;-7.470;2023-11-19T01:55:46;98762.63;;;10.56;100.00
64253;BME280;50592;52.958;-7.470;2023-11-19T01:58:12;98763.66;;;10.55;100.00
64253;BME280;50592;52.958;-7.470;2023-11-19T02:00:38;98768.56;;;10.58;100.00
64253;BME280;50592;52.958;-7.470;2023-11-19T02:03:06;98769.19;;;10.60;100.00
64253;BME280;50592;52.958;-7.470;2023-11-19T02:05:35;98762.44;;;10.58;100.00
64253;BME280;50592;52.958;-7.470;2023-11-19T02:08:01;98764.28;;;10.57;100.00
64253;BME280;50592;52.958;-7.470;2023-11-19T02:10:27;98761.84;;;10.56;100.00
64253;BME280;50592;52.958;-7.470;2023-11-19T02:12:55;98767.13;;;10.56;100.00
64253;BME280;50592;52.958;-7.470;2023-11-19T02:15:24;98760.13;;;10.48;100.00
64253;BME280;50592;52.958;-7.470;2023-11-19T02:20:44;98759.94;;;10.49;100.00
64253;BME280;50592;52.958;-7.470;2023-11-19T02:23:10;98755.56;;;10.41;100.00
64253;BME280;50592;52.958;-7.470;2023-11-19T02:25:37;98759.94;;;10.49;100.00
64253;BME280;50592;52.958;-7.470;2023-11-19T02:28:06;98754.16;;;10.46;100.00
64253;BME280;50592;52.958;-7.470;2023-11-19T02:30:33;98748.88;;;10.46;100.00
64253;BME280;50592;52.958;-7.470;2023-11-19T02:32:59;98748.63;;;10.40;100.00
64253;BME280;50592;52.958;-7.470;2023-11-19T02:35:51;98745.16;;;10.40;100.00
64253;BME280;50592;52.958;-7.470;2023-11-19T02:38:19;98745.16;;;10.40;100.00
64253;BME280;50592;52.958;-7.470;2023-11-19T02:40:47;98753.19;;;10.47;100.00
64253;BME280;50592;52.958;-7.470;2023-11-19T02:43:14;98745.41;;;10.45;100.00
64253;BME280;50592;52.958;-7.470;2023-11-19T02:45:43;98731.88;;;10.48;100.00
64253;BME280;50592;52.958;-7.470;2023-11-19T02:48:21;98744.31;;;10.54;100.00
64253;BME280;50592;52.958;-7.470;2023-11-19T02:50:47;98746.16;;;10.54;100.00
64253;BME280;50592;52.958;-7.470;2023-11-19T02:53:13;98740.25;;;10.52;100.00
64253;BME280;50592;52.958;-7.470;2023-11-19T02:55:39;98734.78;;;10.53;100.00
64253;BME280;50592;52.958;-7.470;2023-11-19T02:58:16;98732.59;;;10.57;100.00
64253;BME280;50592;52.958;-7.470;2023-11-19T03:00:50;98743.72;;;10.52;100.00
64253;BME280;50592;52.958;-7.470;2023-11-19T03:03:37;98732.59;;;10.57;100.00
64253;BME280;50592;52.958;-7.470;2023-11-19T03:06:04;98737.69;;;10.59;100.00
64253;BME280;50592;52.958;-7.470;2023-11-19T03:08:31;98735.97;;;10.51;100.00
64253;BME280;50592;52.958;-7.470;2023-11-19T03:10:56;98737.88;;;10.57;100.00
64253;BME280;50592;52.958;-7.470;2023-11-19T03:13:22;98735.22;;;10.57;100.00
64253;BME280;50592;52.958;-7.470;2023-11-19T03:15:48;98731.75;;;10.57;100.00
64253;BME280;50592;52.958;-7.470;2023-11-19T03:18:14;98736.84;;;10.58;100.00
64253;BME280;50592;52.958;-7.470;2023-11-19T03:20:40;98718.09;;;10.53;100.00
64253;BME280;50592;52.958;-7.470;2023-11-19T03:23:06;98715.72;;;10.58;100.00
64253;BME280;50592;52.958;-7.470;2023-11-19T03:25:32;98721.19;;;10.57;100.00
64253;BME280;50592;52.958;-7.470;2023-11-19T03:28:02;98727.69;;;10.54;100.00
64253;BME280;50592;52.958;-7.470;2023-11-19T03:30:29;98717.91;;;10.54;100.00
64253;BME280;50592;52.958;-7.470;2023-11-19T03:32:57;98728.75;;;10.60;100.00
64253;BME280;50592;52.958;-7.470;2023-11-19T03:35:23;98721.38;;;10.55;100.00
64253;BME280;50592;52.958;-7.470;2023-11-19T03:37:50;98713.81;;;10.52;100.00
64253;BME280;50592;52.958;-7.470;2023-11-19T03:40:17;98710.72;;;10.48;100.00
64253;BME280;50592;52.958;-7.470;2023-11-19T03:42:45;98707.09;;;10.49;100.00
64253;BME280;50592;52.958;-7.470;2023-11-19T03:45:11;98706.63;;;10.46;100.00
64253;BME280;50592;52.958;-7.470;2023-11-19T03:47:37;98713.56;;;10.47;100.00
64253;BME280;50592;52.958;-7.470;2023-11-19T03:50:04;98707.47;;;10.46;100.00
64253;BME280;50592;52.958;-7.470;2023-11-19T03:52:30;98709.63;;;10.42;100.00
64253;BME280;50592;52.958;-7.470;2023-11-19T03:54:56;98700.28;;;10.40;100.00
64253;BME280;50592;52.958;-7.470;2023-11-19T03:57:23;98700.50;;;10.45;100.00
64253;BME280;50592;52.958;-7.470;2023-11-19T03:59:48;98694.81;;;10.41;100.00
64253;BME280;50592;52.958;-7.470;2023-11-19T04:02:15;98709.94;;;10.48;100.00
64253;BME280;50592;52.958;-7.470;2023-11-19T04:04:41;98692.78;;;10.43;100.00
64253;BME280;50592;52.958;-7.470;2023-11-19T04:07:07;98691.34;;;10.41;100.00
64253;BME280;50592;52.958;-7.470;2023-11-19T04:09:34;98683.97;;;10.36;100.00
64253;BME280;50592;52.958;-7.470;2023-11-19T04:12:00;98690.78;;;10.46;100.00
64253;BME280;50592;52.958;-7.470;2023-11-19T04:14:40;98686.06;;;10.41;100.00
64253;BME280;50592;52.958;-7.470;2023-11-19T04:17:06;98687.16;;;10.47;100.00
64253;BME280;50592;52.958;-7.470;2023-11-19T04:19:32;98682.03;;;10.45;100.00
64253;BME280;50592;52.958;-7.470;2023-11-19T04:21:58;98678.22;;;10.48;100.00
64253;BME280;50592;52.958;-7.470;2023-11-19T04:24:24;98673.13;;;10.46;100.00
64253;BME280;50592;52.958;-7.470;2023-11-19T04:26:53;98667.91;;;10.53;100.00
64253;BME280;50592;52.958;-7.470;2023-11-19T04:29:19;98670.31;;;10.48;100.00
64253;BME280;50592;52.958;-7.470;2023-11-19T04:31:45;98669.63;;;10.46;100.00
64253;BME280;50592;52.958;-7.470;2023-11-19T04:34:11;98659.38;;;10.51;100.00
64253;BME280;50592;52.958;-7.470;2023-11-19T04:36:49;98665.44;;;10.51;100.00
64253;BME280;50592;52.958;-7.470;2023-11-19T04:39:15;98671.38;;;10.53;100.00
64253;BME280;50592;52.958;-7.470;2023-11-19T04:41:50;98662.06;;;10.58;100.00
64253;BME280;50592;52.958;-7.470;2023-11-19T04:44:20;98661.00;;;10.52;100.00
64253;BME280;50592;52.958;-7.470;2023-11-19T04:46:46;98654.69;;;10.53;100.00
64253;BME280;50592;52.958;-7.470;2023-11-19T04:49:13;98653.91;;;10.52;100.00
64253;BME280;50592;52.958;-7.470;2023-11-19T04:51:40;98651.63;;;10.49;100.00
64253;BME280;50592;52.958;-7.470;2023-11-19T04:54:08;98644.69;;;10.48;100.00
64253;BME280;50592;52.958;-7.470;2023-11-19T04:56:35;98644.25;;;10.45;100.00
64253;BME280;50592;52.958;-7.470;2023-11-19T04:59:02;98635.50;;;10.44;100.00
64253;BME280;50592;52.958;-7.470;2023-11-19T05:01:30;98645.22;;;10.43;100.00
64253;BME280;50592;52.958;-7.470;2023-11-19T05:03:56;98631.59;;;10.40;100.00
64253;BME280;50592;52.958;-7.470;2023-11-19T05:06:29;98646.72;;;10.46;100.00
64253;BME280;50592;52.958;-7.470;2023-11-19T05:09:01;98637.78;;;10.47;100.00
64253;BME280;50592;52.958;-7.470;2023-11-19T05:11:29;98636.25;;;10.38;100.00
64253;BME280;50592;52.958;-7.470;2023-11-19T05:13:54;98637.69;;;10.40;100.00
64253;BME280;50592;52.958;-7.470;2023-11-19T05:16:20;98637.03;;;10.38;100.00
64253;BME280;50592;52.958;-7.470;2023-11-19T05:18:46;98641.16;;;10.41;100.00
64253;BME280;50592;52.958;-7.470;2023-11-19T05:21:15;98637.88;;;10.39;100.00
64253;BME280;50592;52.958;-7.470;2023-11-19T05:23:40;98629.75;;;10.40;100.00
64253;BME280;50592;52.958;-7.470;2023-11-19T05:26:17;98635.16;;;10.47;100.00
64253;BME280;50592;52.958;-7.470;2023-11-19T05:28:43;98621.38;;;10.37;100.00
64253;BME280;50592;52.958;-7.470;2023-11-19T05:31:09;98622.03;;;10.39;100.00
64253;BME280;50592;52.958;-7.470;2023-11-19T05:33:38;98620.41;;;10.38;100.00
64253;BME280;50592;52.958;-7.470;2023-11-19T05:36:05;98616.38;;;10.42;100.00
64253;BME280;50592;52.958;-7.470;2023-11-19T05:38:32;98614.09;;;10.39;100.00
64253;BME280;50592;52.958;-7.470;2023-11-19T05:40:58;98623.84;;;10.38;100.00
64253;BME280;50592;52.958;-7.470;2023-11-19T05:43:23;98620.03;;;10.41;100.00
64253;BME280;50592;52.958;-7.470;2023-11-19T05:45:49;98617.38;;;10.41;100.00
64253;BME280;50592;52.958;-7.470;2023-11-19T05:48:19;98614.94;;;10.39;100.00
64253;BME280;50592;52.958;-7.470;2023-11-19T05:50:46;98612.28;;;10.39;100.00
64253;BME280;50592;52.958;-7.470;2023-11-19T06:31:25;98608.59;;;10.56;100.00
64253;BME280;50592;52.958;-7.470;2023-11-19T06:35:25;98596.66;;;10.60;100.00
64253;BME280;50592;52.958;-7.470;2023-11-19T06:39:33;98606.19;;;10.61;100.00
64253;BME280;50592;52.958;-7.470;2023-11-19T06:55:09;98627.41;;;10.67;100.00
64253;BME280;50592;52.958;-7.470;2023-11-19T07:03:18;98611.34;;;10.69;100.00
64253;BME280;50592;52.958;-7.470;2023-11-19T07:57:45;98653.53;;;11.06;100.00
64253;BME280;50592;52.958;-7.470;2023-11-19T08:01:49;98660.63;;;11.06;100.00
64253;BME280;50592;52.958;-7.470;2023-11-19T08:05:57;98667.59;;;11.13;100.00
64253;BME280;50592;52.958;-7.470;2023-11-19T08:15:02;98682.56;;;11.28;100.00
64253;BME280;50592;52.958;-7.470;2023-11-19T08:23:10;98697.53;;;11.43;100.00
64253;BME280;50592;52.958;-7.470;2023-11-19T08:26:40;98708.53;;;11.46;100.00
64253;BME280;50592;52.958;-7.470;2023-11-19T08:41:35;98735.25;;;11.51;100.00
64253;BME280;50592;52.958;-7.470;2023-11-19T08:44:18;98727.13;;;11.60;100.00
64253;BME280;50592;52.958;-7.470;2023-11-19T08:51:30;98756.88;;;11.62;100.00
64253;BME280;50592;52.958;-7.470;2023-11-19T08:55:07;98763.78;;;11.63;100.00
64253;BME280;50592;52.958;-7.470;2023-11-19T09:02:27;98774.56;;;11.61;100.00
64253;BME280;50592;52.958;-7.470;2023-11-19T09:09:31;98787.22;;;11.66;100.00
64253;BME280;50592;52.958;-7.470;2023-11-19T09:13:33;98795.56;;;11.63;100.00
64253;BME280;50592;52.958;-7.470;2023-11-19T09:16:47;98793.34;;;11.66;100.00
64253;BME280;50592;52.958;-7.470;2023-11-19T09:19:40;98805.38;;;11.69;100.00
64253;BME280;50592;52.958;-7.470;2023-11-19T09:27:13;98804.75;;;11.67;100.00
64253;BME280;50592;52.958;-7.470;2023-11-19T09:30:23;98821.25;;;11.69;100.00
64253;BME280;50592;52.958;-7.470;2023-11-19T09:33:23;98804.13;;;11.65;100.00
64253;BME280;50592;52.958;-7.470;2023-11-19T09:36:11;98829.19;;;11.69;100.00
64253;BME280;50592;52.958;-7.470;2023-11-19T09:39:05;98829.00;;;11.71;100.00
64253;BME280;50592;52.958;-7.470;2023-11-19T09:41:51;98837.38;;;11.74;100.00
64253;BME280;50592;52.958;-7.470;2023-11-19T09:44:24;98834.88;;;11.66;100.00
64253;BME280;50592;52.958;-7.470;2023-11-19T09:46:52;98847.13;;;11.74;100.00
64253;BME280;50592;52.958;-7.470;2023-11-19T09:49:24;98859.97;;;11.70;100.00
64253;BME280;50592;52.958;-7.470;2023-11-19T09:51:52;98862.59;;;11.70;100.00
64253;BME280;50592;52.958;-7.470;2023-11-19T09:54:22;98879.16;;;11.79;100.00
64253;BME280;50592;52.958;-7.470;2023-11-19T09:56:48;98882.00;;;11.77;100.00
64253;BME280;50592;52.958;-7.470;2023-11-19T09:59:27;98890.56;;;11.79;100.00
64253;BME280;50592;52.958;-7.470;2023-11-19T10:02:37;98904.25;;;11.83;100.00
64253;BME280;50592;52.958;-7.470;2023-11-19T10:06:15;98897.44;;;11.74;100.00
64253;BME280;50592;52.958;-7.470;2023-11-19T10:22:26;98930.34;;;11.64;100.00
64253;BME280;50592;52.958;-7.470;2023-11-19T10:30:25;98951.28;;;11.59;100.00
64253;BME280;50592;52.958;-7.470;2023-11-19T10:33:04;98963.28;;;11.62;100.00
64253;BME280;50592;52.958;-7.470;2023-11-19T10:35:51;98958.00;;;11.62;100.00
64253;BME280;50592;52.958;-7.470;2023-11-19T10:38:20;98975.09;;;11.59;100.00
64253;BME280;50592;52.958;-7.470;2023-11-19T10:40:49;98975.69;;;11.61;100.00
64253;BME280;50592;52.958;-7.470;2023-11-19T10:43:16;98979.00;;;11.63;100.00
64253;BME280;50592;52.958;-7.470;2023-11-19T10:45:43;98974.06;;;11.60;100.00
64253;BME280;50592;52.958;-7.470;2023-11-19T10:48:09;98984.84;;;11.59;100.00
64253;BME280;50592;52.958;-7.470;2023-11-19T10:50:37;98988.56;;;11.64;100.00
64253;BME280;50592;52.958;-7.470;2023-11-19T10:53:04;98995.13;;;11.69;100.00
64253;BME280;50592;52.958;-7.470;2023-11-19T10:55:32;98988.81;;;11.70;100.00
64253;BME280;50592;52.958;-7.470;2023-11-19T10:58:08;99013.28;;;11.72;100.00
64253;BME280;50592;52.958;-7.470;2023-11-19T11:00:44;99008.41;;;11.75;100.00
64253;BME280;50592;52.958;-7.470;2023-11-19T11:03:17;99017.56;;;11.73;100.00
64253;BME280;50592;52.958;-7.470;2023-11-19T11:05:48;99019.94;;;11.68;100.00
64253;BME280;50592;52.958;-7.470;2023-11-19T11:08:14;99031.81;;;11.72;100.00
64253;BME280;50592;52.958;-7.470;2023-11-19T11:10:46;99036.09;;;11.73;100.00
64253;BME280;50592;52.958;-7.470;2023-11-19T11:13:14;99032.38;;;11.67;100.00
64253;BME280;50592;52.958;-7.470;2023-11-19T11:15:39;99038.03;;;11.64;100.00
64253;BME280;50592;52.958;-7.470;2023-11-19T11:18:09;99041.66;;;11.63;100.00
64253;BME280;50592;52.958;-7.470;2023-11-19T11:20:35;99052.44;;;11.61;100.00
64253;BME280;50592;52.958;-7.470;2023-11-19T11:32:15;99069.97;;;11.62;100.00
64253;BME280;50592;52.958;-7.470;2023-11-19T11:34:41;99064.88;;;11.61;100.00
64253;BME280;50592;52.958;-7.470;2023-11-19T11:37:21;99071.44;;;11.65;100.00
64253;BME280;50592;52.958;-7.470;2023-11-19T11:39:49;99076.06;;;11.63;100.00
64253;BME280;50592;52.958;-7.470;2023-11-19T11:50:18;99090.22;;;11.70;100.00
64253;BME280;50592;52.958;-7.470;2023-11-19T11:55:59;99082.91;;;11.72;100.00
64253;BME280;50592;52.958;-7.470;2023-11-19T11:58:35;99107.38;;;11.74;100.00
64253;BME280;50592;52.958;-7.470;2023-11-19T12:01:03;99081.28;;;11.71;100.00
64253;BME280;50592;52.958;-7.470;2023-11-19T12:03:32;99113.59;;;11.82;100.00
64253;BME280;50592;52.958;-7.470;2023-11-19T12:05:59;99108.00;;;11.76;100.00
64253;BME280;50592;52.958;-7.470;2023-11-19T12:08:28;99092.50;;;11.73;100.00
64253;BME280;50592;52.958;-7.470;2023-11-19T12:11:20;99105.75;;;11.73;100.00
64253;BME280;50592;52.958;-7.470;2023-11-19T12:13:53;99117.06;;;11.67;100.00
64253;BME280;50592;52.958;-7.470;2023-11-19T12:16:21;99105.84;;;11.65;100.00
64253;BME280;50592;52.958;-7.470;2023-11-19T12:18:47;99124.63;;;11.70;100.00
64253;BME280;50592;52.958;-7.470;2023-11-19T12:21:28;99128.44;;;11.83;100.00
64253;BME280;50592;52.958;-7.470;2023-11-19T12:23:55;99117.22;;;11.81;100.00
64253;BME280;50592;52.958;-7.470;2023-11-19T12:26:35;99134.19;;;11.86;100.00
64253;BME280;50592;52.958;-7.470;2023-11-19T12:29:03;99133.00;;;11.89;100.00
64253;BME280;50592;52.958;-7.470;2023-11-19T12:31:32;99144.78;;;11.86;100.00
64253;BME280;50592;52.958;-7.470;2023-11-19T12:38:30;99141.41;;;11.77;100.00
64253;BME280;50592;52.958;-7.470;2023-11-19T12:41:08;99152.00;;;11.77;100.00
64253;BME280;50592;52.958;-7.470;2023-11-19T12:43:37;99159.13;;;11.77;100.00
64253;BME280;50592;52.958;-7.470;2023-11-19T12:46:27;99149.06;;;11.72;100.00
64253;BME280;50592;52.958;-7.470;2023-11-19T12:49:17;99156.03;;;11.58;100.00
64253;BME280;50592;52.958;-7.470;2023-11-19T12:52:14;99168.28;;;11.59;100.00
64253;BME280;50592;52.958;-7.470;2023-11-19T12:54:50;99171.66;;;11.53;100.00
64253;BME280;50592;52.958;-7.470;2023-11-19T12:57:20;99170.47;;;11.56;100.00
64253;BME280;50592;52.958;-7.470;2023-11-19T13:00:01;99175.19;;;11.60;100.00
64253;BME280;50592;52.958;-7.470;2023-11-19T13:06:08;99190.72;;;11.63;100.00
64253;BME280;50592;52.958;-7.470;2023-11-19T13:08:50;99197.09;;;11.69;100.00
64253;BME280;50592;52.958;-7.470;2023-11-19T13:11:35;99207.69;;;11.69;100.00
64253;BME280;50592;52.958;-7.470;2023-11-19T13:14:05;99209.06;;;11.65;100.00
64253;BME280;50592;52.958;-7.470;2023-11-19T13:16:39;99215.72;;;11.61;100.00
64253;BME280;50592;52.958;-7.470;2023-11-19T13:19:06;99224.28;;;11.63;100.00
64253;BME280;50592;52.958;-7.470;2023-11-19T13:21:40;99227.88;;;11.70;100.00
64253;BME280;50592;52.958;-7.470;2023-11-19T13:24:49;99237.06;;;11.74;100.00
64253;BME280;50592;52.958;-7.470;2023-11-19T13:27:45;99229.50;;;11.71;100.00
64253;BME280;50592;52.958;-7.470;2023-11-19T13:31:05;99235.25;;;11.75;100.00
64253;BME280;50592;52.958;-7.470;2023-11-19T13:33:59;99225.59;;;11.67;100.00
64253;BME280;50592;52.958;-7.470;2023-11-19T13:36:45;99237.88;;;11.60;100.00
64253;BME280;50592;52.958;-7.470;2023-11-19T13:39:25;99247.66;;;11.59;100.00
64253;BME280;50592;52.958;-7.470;2023-11-19T13:41:59;99248.66;;;11.58;100.00
64253;BME280;50592;52.958;-7.470;2023-11-19T13:44:30;99260.06;;;11.59;100.00
64253;BME280;50592;52.958;-7.470;2023-11-19T13:47:30;99251.59;;;11.63;100.00
64253;BME280;50592;52.958;-7.470;2023-11-19T13:50:06;99252.31;;;11.57;100.00
64253;BME280;50592;52.958;-7.470;2023-11-19T13:52:56;99249.56;;;11.50;100.00
64253;BME280;50592;52.958;-7.470;2023-11-19T13:56:01;99256.03;;;11.48;100.00
64253;BME280;50592;52.958;-7.470;2023-11-19T13:58:28;99250.44;;;11.43;100.00
64253;BME280;50592;52.958;-7.470;2023-11-19T14:00:53;99258.03;;;11.46;100.00
64253;BME280;50592;52.958;-7.470;2023-11-19T14:03:19;99262.31;;;11.47;100.00
64253;BME280;50592;52.958;-7.470;2023-11-19T14:06:23;99246.91;;;11.50;100.00
64253;BME280;50592;52.958;-7.470;2023-11-19T14:08:58;99249.44;;;11.44;100.00
64253;BME280;50592;52.958;-7.470;2023-11-19T14:12:10;99242.53;;;11.43;100.00
64253;BME280;50592;52.958;-7.470;2023-11-19T14:18:20;99266.66;;;11.24;100.00
64253;BME280;50592;52.958;-7.470;2023-11-19T14:20:46;99265.53;;;11.19;100.00
64253;BME280;50592;52.958;-7.470;2023-11-19T14:23:12;99291.06;;;11.11;100.00
64253;BME280;50592;52.958;-7.470;2023-11-19T14:25:38;99286.34;;;10.98;100.00
64253;BME280;50592;52.958;-7.470;2023-11-19T14:28:04;99259.72;;;10.76;100.00
64253;BME280;50592;52.958;-7.470;2023-11-19T14:30:41;99287.97;;;10.76;100.00
64253;BME280;50592;52.958;-7.470;2023-11-19T14:34:11;99293.16;;;10.61;100.00
64253;BME280;50592;52.958;-7.470;2023-11-19T14:36:46;99295.16;;;10.59;100.00
64253;BME280;50592;52.958;-7.470;2023-11-19T14:44:01;99287.59;;;10.56;100.00
64253;BME280;50592;52.958;-7.470;2023-11-19T14:50:40;99294.78;;;10.70;100.00
64253;BME280;50592;52.958;-7.470;2023-11-19T15:03:44;99290.31;;;10.71;100.00
64253;BME280;50592;52.958;-7.470;2023-11-19T15:07:10;99288.50;;;10.71;100.00
64253;BME280;50592;52.958;-7.470;2023-11-19T15:09:36;99299.91;;;10.72;100.00
64253;BME280;50592;52.958;-7.470;2023-11-19T15:12:02;99304.84;;;10.75;100.00
64253;BME280;50592;52.958;-7.470;2023-11-19T15:14:31;99320.53;;;10.76;100.00
64253;BME280;50592;52.958;-7.470;2023-11-19T15:17:23;99325.97;;;10.75;100.00
64253;BME280;50592;52.958;-7.470;2023-11-19T15:19:52;99329.50;;;10.67;100.00
64253;BME280;50592;52.958;-7.470;2023-11-19T15:22:18;99343.53;;;10.59;100.00
64253;BME280;50592;52.958;-7.470;2023-11-19T15:24:49;99341.41;;;10.54;100.00
64253;BME280;50592;52.958;-7.470;2023-11-19T15:27:15;99346.34;;;10.58;100.00
64253;BME280;50592;52.958;-7.470;2023-11-19T15:29:57;99342.22;;;10.63;100.00
64253;BME280;50592;52.958;-7.470;2023-11-19T15:32:39;99332.84;;;10.52;100.00
64253;BME280;50592;52.958;-7.470;2023-11-19T15:35:12;99335.66;;;10.51;100.00
64253;BME280;50592;52.958;-7.470;2023-11-19T15:37:54;99343.75;;;10.49;100.00
64253;BME280;50592;52.958;-7.470;2023-11-19T15:40:50;99344.22;;;10.53;100.00
64253;BME280;50592;52.958;-7.470;2023-11-19T15:43:53;99347.88;;;10.52;100.00
64253;BME280;50592;52.958;-7.470;2023-11-19T15:46:51;99347.88;;;10.52;100.00
64253;BME280;50592;52.958;-7.470;2023-11-19T15:58:08;99351.50;;;10.42;100.00
64253;BME280;50592;52.958;-7.470;2023-11-19T16:00:46;99360.91;;;10.45;100.00
64253;BME280;50592;52.958;-7.470;2023-11-19T16:03:20;99358.44;;;10.35;100.00
64253;BME280;50592;52.958;-7.470;2023-11-19T16:06:07;99367.72;;;10.39;100.00
64253;BME280;50592;52.958;-7.470;2023-11-19T16:08:34;99392.00;;;10.35;100.00
64253;BME280;50592;52.958;-7.470;2023-11-19T16:11:03;99387.84;;;10.32;100.00
64253;BME280;50592;52.958;-7.470;2023-11-19T16:13:29;99386.72;;;10.26;100.00
64253;BME280;50592;52.958;-7.470;2023-11-19T16:20:51;99376.66;;;10.13;100.00
64253;BME280;50592;52.958;-7.470;2023-11-19T16:27:32;99380.81;;;9.99;100.00
64253;BME280;50592;52.958;-7.470;2023-11-19T16:29:58;99371.59;;;9.95;100.00
64253;BME280;50592;52.958;-7.470;2023-11-19T16:32:25;99382.16;;;9.95;100.00
64253;BME280;50592;52.958;-7.470;2023-11-19T16:34:58;99385.44;;;9.97;100.00
64253;BME280;50592;52.958;-7.470;2023-11-19T16:37:24;99379.19;;;9.90;100.00
64253;BME280;50592;52.958;-7.470;2023-11-19T16:39:55;99384.78;;;9.95;100.00
64253;BME280;50592;52.958;-7.470;2023-11-19T16:42:21;99379.84;;;9.92;100.00
64253;BME280;50592;52.958;-7.470;2023-11-19T16:44:56;99388.91;;;9.98;100.00
64253;BME280;50592;52.958;-7.470;2023-11-19T16:47:23;99392.88;;;9.93;100.00
64253;BME280;50592;52.958;-7.470;2023-11-19T16:49:52;99398.16;;;9.93;100.00
64253;BME280;50592;52.958;-7.470;2023-11-19T16:52:47;99413.97;;;10.02;100.00
64253;BME280;50592;52.958;-7.470;2023-11-19T17:07:38;99409.84;;;9.91;100.00
64253;BME280;50592;52.958;-7.470;2023-11-19T17:10:05;99406.41;;;9.90;100.00
64253;BME280;50592;52.958;-7.470;2023-11-19T17:12:32;99403.09;;;9.88;100.00
64253;BME280;50592;52.958;-7.470;2023-11-19T17:14:58;99406.41;;;9.90;100.00
64253;BME280;50592;52.958;-7.470;2023-11-19T17:17:34;99404.41;;;9.92;100.00
64253;BME280;50592;52.958;-7.470;2023-11-19T17:20:03;99409.69;;;9.92;100.00
64253;BME280;50592;52.958;-7.470;2023-11-19T17:22:41;99414.47;;;9.97;100.00
64253;BME280;50592;52.958;-7.470;2023-11-19T17:25:10;99415.63;;;9.95;100.00
64253;BME280;50592;52.958;-7.470;2023-11-19T17:27:40;99423.06;;;9.99;100.00
64253;BME280;50592;52.958;-7.470;2023-11-19T17:30:14;99418.13;;;9.96;100.00
64253;BME280;50592;52.958;-7.470;2023-11-19T17:43:46;99436.25;;;9.99;100.00
64253;BME280;50592;52.958;-7.470;2023-11-19T18:05:03;99458.19;;;9.91;100.00
64253;BME280;50592;52.958;-7.470;2023-11-19T18:07:49;99461.16;;;9.88;100.00
64253;BME280;50592;52.958;-7.470;2023-11-19T18:10:22;99454.41;;;9.94;100.00
64253;BME280;50592;52.958;-7.470;2023-11-19T18:16:58;99455.22;;;9.95;100.00
64253;BME280;50592;52.958;-7.470;2023-11-19T18:39:54;99460.16;;;9.89;100.00
64253;BME280;50592;52.958;-7.470;2023-11-19T18:46:06;99450.47;;;9.98;100.00
64253;BME280;50592;52.958;-7.470;2023-11-19T18:57:00;99482.28;;;9.88;100.00
64253;BME280;50592;52.958;-7.470;2023-11-19T19:00:34;99495.31;;;9.90;100.00
64253;BME280;50592;52.958;-7.470;2023-11-19T19:03:20;99495.97;;;9.84;100.00
64253;BME280;50592;52.958;-7.470;2023-11-19T19:05:54;99494.16;;;9.76;100.00
64253;BME280;50592;52.958;-7.470;2023-11-19T19:08:36;99485.06;;;9.78;100.00
64253;BME280;50592;52.958;-7.470;2023-11-19T19:11:14;99469.72;;;9.74;100.00
64253;BME280;50592;52.958;-7.470;2023-11-19T19:14:25;99466.59;;;9.70;100.00
64253;BME280;50592;52.958;-7.470;2023-11-19T19:17:37;99459.66;;;9.61;100.00
64253;BME280;50592;52.958;-7.470;2023-11-19T19:20:29;99449.06;;;9.52;100.00
64253;BME280;50592;52.958;-7.470;2023-11-19T19:23:27;99450.22;;;9.41;100.00
64253;BME280;50592;52.958;-7.470;2023-11-19T19:26:02;99454.84;;;9.39;100.00
64253;BME280;50592;52.958;-7.470;2023-11-19T19:29:08;99448.91;;;9.37;100.00
64253;BME280;50592;52.958;-7.470;2023-11-19T19:31:52;99442.94;;;9.27;100.00
64253;BME280;50592;52.958;-7.470;2023-11-19T19:34:18;99446.22;;;9.29;100.00
64253;BME280;50592;52.958;-7.470;2023-11-19T19:36:50;99442.13;;;9.26;100.00
64253;BME280;50592;52.958;-7.470;2023-11-19T19:39:49;99446.91;;;9.31;100.00
64253;BME280;50592;52.958;-7.470;2023-11-19T19:42:40;99446.75;;;9.33;100.00
64253;BME280;50592;52.958;-7.470;2023-11-19T19:45:31;99444.25;;;9.31;100.00
64253;BME280;50592;52.958;-7.470;2023-11-19T19:51:03;99435.19;;;9.34;100.00
64253;BME280;50592;52.958;-7.470;2023-11-19T19:54:39;99429.59;;;9.37;100.00
64253;BME280;50592;52.958;-7.470;2023-11-19T19:57:10;99424.97;;;9.30;100.00